Time;durP1;ratioP1;P1;durP2;ratioP2;P2;SDS_P1;SDS_P2;PMS_P1;PMS_P2;Temp;Humidity;BMP_temperature;BMP_pressure;BME280_temperature;BME280_humidity;BME280_pressure;Samples;Min_cycle;Max_cycle;Signal;HPM_P1;HPM_P2
2024/01/01 00:01:40;;;;;;;33.42;18.15;;;8.60;37.70;;;;;;5034133;28;20545;-71
2024/01/01 00:04:05;;;;;;;32.30;17.20;;;8.60;43.80;;;;;;5034042;28;20021;-71
2024/01/01 00:06:31;;;;;;;35.10;17.88;;;8.70;43.30;;;;;;5033685;28;20116;-71
2024/01/01 00:08:56;;;;;;;31.30;18.50;;;8.70;46.00;;;;;;5033991;28;20443;-71
2024/01/01 00:11:22;;;;;;;35.03;20.33;;;8.70;37.00;;;;;;5033843;28;20030;-71
2024/01/01 00:13:47;;;;;;;35.40;20.35;;;8.70;36.00;;;;;;5033598;28;20116;-71
2024/01/01 00:16:14;;;;;;;35.47;18.90;;;8.70;35.20;;;;;;5033868;28;20056;-71
2024/01/01 00:18:41;;;;;;;32.83;20.00;;;8.80;24.60;;;;;;5033725;28;20049;-71
2024/01/01 00:21:07;;;;;;;33.83;19.50;;;8.70;20.90;;;;;;5033848;28;20116;-71
2024/01/01 00:23:33;;;;;;;36.33;18.88;;;8.70;21.50;;;;;;5033737;28;20033;-71
2024/01/01 00:25:58;;;;;;;37.70;18.58;;;8.70;20.20;;;;;;5033845;28;20144;-72
2024/01/01 00:28:24;;;;;;;28.17;16.65;;;8.70;13.80;;;;;;5033656;28;20068;-71
2024/01/01 00:30:49;;;;;;;26.83;14.63;;;8.70;16.40;;;;;;5033723;28;20038;-71
2024/01/01 00:33:15;;;;;;;27.15;14.30;;;8.70;12.10;;;;;;5033086;28;20036;-71
2024/01/01 00:35:40;;;;;;;24.83;14.80;;;8.70;14.00;;;;;;5033600;28;20034;-71
2024/01/01 00:38:06;;;;;;;27.48;14.07;;;8.70;22.10;;;;;;5033146;28;20036;-72
2024/01/01 00:40:31;;;;;;;23.45;11.82;;;8.70;22.40;;;;;;5033228;28;20112;-71
2024/01/01 00:42:57;;;;;;;21.85;11.45;;;8.70;13.90;;;;;;5033627;28;20033;-71
2024/01/01 00:45:22;;;;;;;18.73;9.90;;;8.80;16.60;;;;;;5033434;28;20489;-71
2024/01/01 00:47:48;;;;;;;20.08;9.57;;;8.70;17.20;;;;;;5033269;28;20112;-71
2024/01/01 00:50:14;;;;;;;16.65;9.23;;;8.70;16.80;;;;;;5033410;28;20045;-71
2024/01/01 00:52:39;;;;;;;17.08;9.07;;;8.70;16.20;;;;;;5032911;28;20057;-71
2024/01/01 00:55:05;;;;;;;21.38;9.25;;;8.70;18.30;;;;;;5033458;28;20026;-71
2024/01/01 00:57:31;;;;;;;17.10;8.50;;;8.80;10.80;;;;;;5033283;28;20032;-71
2024/01/01 00:59:56;;;;;;;19.05;9.75;;;8.80;3.00;;;;;;5033315;28;20041;-71
2024/01/01 01:02:22;;;;;;;18.92;9.18;;;8.80;7.10;;;;;;5032821;28;20030;-71
2024/01/01 01:04:47;;;;;;;21.55;10.55;;;8.80;2.40;;;;;;5033222;28;20072;-71
2024/01/01 01:07:13;;;;;;;21.10;9.93;;;8.80;6.30;;;;;;5033282;28;20372;-71
2024/01/01 01:09:39;;;;;;;22.27;11.15;;;8.70;10.00;;;;;;5034818;28;20498;-71
2024/01/01 01:12:05;;;;;;;20.90;10.95;;;8.80;4.90;;;;;;5036868;28;20025;-71
2024/01/01 01:14:31;;;;;;;25.17;11.70;;;8.90;1.50;;;;;;5036964;28;20041;-71
2024/01/01 01:16:56;;;;;;;26.70;12.88;;;8.80;5.30;;;;;;5037195;28;20078;-72
2024/01/01 01:19:22;;;;;;;31.63;15.23;;;8.90;15.20;;;;;;5037163;28;20055;-71
2024/01/01 01:21:47;;;;;;;24.67;14.43;;;8.90;22.50;;;;;;5037117;28;20487;-71
2024/01/01 01:24:15;;;;;;;27.83;14.50;;;8.90;16.10;;;;;;5037106;28;20033;-71
2024/01/01 01:26:41;;;;;;;29.42;14.85;;;8.80;16.90;;;;;;5037092;28;20135;-71
2024/01/01 01:29:09;;;;;;;24.98;14.48;;;8.80;9.30;;;;;;5036683;28;20549;-71
2024/01/01 01:31:34;;;;;;;33.72;14.50;;;8.70;10.50;;;;;;5036828;28;20487;-71
2024/01/01 01:34:00;;;;;;;29.05;14.60;;;8.70;8.50;;;;;;5036846;28;20036;-72
2024/01/01 01:36:25;;;;;;;24.58;13.77;;;8.70;10.80;;;;;;5036894;28;20025;-72
2024/01/01 01:38:51;;;;;;;28.25;13.98;;;8.70;8.10;;;;;;5036810;28;20060;-71
2024/01/01 01:41:16;;;;;;;26.98;13.93;;;8.70;7.80;;;;;;5036773;28;20036;-71
2024/01/01 01:43:42;;;;;;;28.92;12.88;;;8.60;14.00;;;;;;5036822;28;20035;-71
2024/01/01 01:46:07;;;;;;;25.08;13.02;;;8.70;7.10;;;;;;5036835;28;20067;-71
2024/01/01 01:48:33;;;;;;;28.08;13.00;;;8.80;6.60;;;;;;5036734;28;20116;-71
2024/01/01 01:50:59;;;;;;;24.35;13.02;;;8.80;8.40;;;;;;5036772;28;20028;-71
2024/01/01 01:53:27;;;;;;;23.92;11.82;;;8.80;5.30;;;;;;5036240;28;20054;-72
2024/01/01 01:55:56;;;;;;;26.90;13.80;;;8.70;3.60;;;;;;5036520;28;20022;-72
2024/01/01 01:58:22;;;;;;;23.38;13.15;;;8.80;1.00;;;;;;5036081;28;20109;-71
2024/01/01 02:00:48;;;;;;;29.60;13.35;;;8.80;1.90;;;;;;5035979;28;20167;-71
2024/01/01 02:03:14;;;;;;;25.20;12.43;;;8.80;2.20;;;;;;5036254;28;20080;-71
2024/01/01 02:05:40;;;;;;;29.10;13.73;;;8.70;2.70;;;;;;5036415;28;20372;-71
2024/01/01 02:08:06;;;;;;;24.23;13.10;;;8.70;1.00;;;;;;5036340;28;20032;-71
2024/01/01 02:10:32;;;;;;;25.60;13.30;;;8.70;1.00;;;;;;5036436;28;20475;-71
2024/01/01 02:12:59;;;;;;;30.50;13.38;;;8.70;3.90;;;;;;5036147;28;20026;-71
2024/01/01 02:15:25;;;;;;;26.92;13.07;;;8.70;1.00;;;;;;5036255;28;20545;-71
2024/01/01 02:17:50;;;;;;;28.65;12.82;;;8.80;1.00;;;;;;5036076;28;20025;-71
2024/01/01 02:20:16;;;;;;;30.50;12.85;;;8.70;1.00;;;;;;5035781;28;20061;-72
2024/01/01 02:22:42;;;;;;;30.80;13.75;;;8.70;4.40;;;;;;5035820;28;20025;-72
2024/01/01 02:25:09;;;;;;;25.95;11.50;;;8.60;5.50;;;;;;5036041;28;20471;-71
2024/01/01 02:27:36;;;;;;;23.52;10.48;;;8.60;12.50;;;;;;5036024;28;20033;-71
2024/01/01 02:30:02;;;;;;;29.55;11.45;;;8.60;5.10;;;;;;5036208;28;20057;-71
2024/01/01 02:32:28;;;;;;;22.35;11.13;;;8.50;10.20;;;;;;5035344;28;20025;-71
2024/01/01 02:34:53;;;;;;;18.42;9.85;;;8.50;20.50;;;;;;5035912;28;20025;-71
2024/01/01 02:37:19;;;;;;;31.02;11.50;;;8.60;1.00;;;;;;5035739;28;20048;-70
2024/01/01 02:39:45;;;;;;;20.42;10.02;;;8.60;1.00;;;;;;5035372;28;20022;-71
2024/01/01 02:42:10;;;;;;;21.55;9.77;;;8.60;1.00;;;;;;5035853;28;20029;-71
2024/01/01 02:44:36;;;;;;;22.38;9.20;;;8.50;13.40;;;;;;5035735;28;20079;-71
2024/01/01 02:47:02;;;;;;;24.05;8.60;;;8.60;11.30;;;;;;5035764;28;20064;-71
2024/01/01 02:49:27;;;;;;;23.88;7.30;;;8.50;14.80;;;;;;5035518;28;20574;-71
2024/01/01 02:51:53;;;;;;;19.55;7.78;;;8.50;12.50;;;;;;5035299;28;20083;-70
2024/01/01 02:54:19;;;;;;;17.35;6.93;;;8.60;6.90;;;;;;5034966;28;20479;-71
2024/01/01 02:56:45;;;;;;;17.30;6.95;;;8.60;14.20;;;;;;5035098;28;20026;-72
2024/01/01 02:59:11;;;;;;;17.08;6.68;;;8.60;1.00;;;;;;5035372;28;20091;-71
2024/01/01 03:01:36;;;;;;;13.60;5.78;;;8.60;5.30;;;;;;5035076;28;20056;-71
2024/01/01 03:04:02;;;;;;;19.50;6.18;;;8.60;1.00;;;;;;5035301;28;20071;-71
2024/01/01 03:06:27;;;;;;;14.55;5.45;;;8.60;3.90;;;;;;5035226;28;20029;-71
2024/01/01 03:08:53;;;;;;;16.45;5.75;;;8.50;1.20;;;;;;5035193;28;20083;-71
2024/01/01 03:11:19;;;;;;;16.75;4.88;;;8.50;4.20;;;;;;5035242;28;20033;-71
2024/01/01 03:13:44;;;;;;;13.95;5.03;;;8.50;8.30;;;;;;5034826;28;20025;-71
2024/01/01 03:16:10;;;;;;;14.70;4.65;;;8.50;9.70;;;;;;5034629;28;20028;-71
2024/01/01 03:18:35;;;;;;;14.57;5.05;;;8.50;17.20;;;;;;5034679;28;20022;-71
2024/01/01 03:21:01;;;;;;;14.00;4.60;;;8.40;17.60;;;;;;5035267;28;20065;-71
2024/01/01 03:23:27;;;;;;;17.63;8.00;;;8.40;21.70;;;;;;5034937;28;20034;-70
2024/01/01 03:25:52;;;;;;;11.20;4.10;;;8.30;38.00;;;;;;5034714;28;20130;-70
2024/01/01 03:28:18;;;;;;;17.88;4.28;;;8.10;55.80;;;;;;5034817;28;20029;-70
2024/01/01 03:30:43;;;;;;;14.75;3.83;;;8.00;78.40;;;;;;5034780;28;20091;-71
2024/01/01 03:33:09;;;;;;;8.52;2.53;;;7.80;93.30;;;;;;5033489;28;20083;-71
2024/01/01 03:35:35;;;;;;;12.50;3.05;;;7.50;99.90;;;;;;5034697;28;20104;-70
2024/01/01 03:38:01;;;;;;;2.65;1.38;;;7.20;99.90;;;;;;5034658;28;20028;-71
2024/01/01 03:40:27;;;;;;;3.30;1.20;;;7.00;99.90;;;;;;5034563;28;20399;-71
2024/01/01 03:42:53;;;;;;;2.95;0.88;;;6.80;99.90;;;;;;5034626;28;20025;-71
2024/01/01 03:45:19;;;;;;;4.22;1.20;;;6.70;99.90;;;;;;5034371;28;20032;-71
2024/01/01 03:47:44;;;;;;;5.03;1.20;;;6.70;99.90;;;;;;5034424;28;20029;-71
2024/01/01 03:50:10;;;;;;;3.33;1.50;;;6.70;99.90;;;;;;5034446;28;20399;-71
2024/01/01 03:52:35;;;;;;;6.03;1.40;;;6.60;99.90;;;;;;5034061;28;20132;-68
2024/01/01 03:55:01;;;;;;;10.45;2.10;;;6.70;99.90;;;;;;5034291;28;20128;-68
2024/01/01 03:57:27;;;;;;;4.97;1.75;;;6.70;99.90;;;;;;5034205;28;20048;-68
2024/01/01 03:59:52;;;;;;;9.10;1.75;;;6.70;99.90;;;;;;5034014;28;20033;-68
2024/01/01 04:02:18;;;;;;;9.10;1.83;;;6.70;99.90;;;;;;5034195;28;20086;-68
2024/01/01 04:04:44;;;;;;;5.65;1.70;;;6.70;99.90;;;;;;5034245;28;20116;-68
2024/01/01 04:07:10;;;;;;;4.65;1.50;;;6.70;99.90;;;;;;5034067;28;20033;-68
2024/01/01 04:09:36;;;;;;;8.00;2.10;;;6.70;99.90;;;;;;5034062;28;20396;-68
2024/01/01 04:12:02;;;;;;;10.00;1.75;;;6.70;99.90;;;;;;5033759;28;20025;-68
2024/01/01 04:14:27;;;;;;;11.32;2.33;;;6.70;99.90;;;;;;5033738;28;20108;-68
2024/01/01 04:16:53;;;;;;;5.53;1.58;;;6.80;99.90;;;;;;5033905;28;20529;-68
2024/01/01 04:19:18;;;;;;;8.57;2.47;;;6.80;99.90;;;;;;5033592;28;20017;-68
2024/01/01 04:21:44;;;;;;;9.35;2.03;;;6.80;99.90;;;;;;5033538;28;20017;-68
2024/01/01 04:24:10;;;;;;;11.65;2.35;;;6.80;99.90;;;;;;5033703;28;20499;-68
2024/01/01 04:26:38;;;;;;;8.80;2.22;;;6.90;99.90;;;;;;5033868;28;20037;-69
2024/01/01 04:29:03;;;;;;;8.90;2.15;;;6.80;99.90;;;;;;5033635;28;20108;-68
2024/01/01 04:31:29;;;;;;;7.40;1.75;;;6.90;99.90;;;;;;5033694;28;20065;-68
2024/01/01 04:33:55;;;;;;;11.55;2.22;;;6.90;99.90;;;;;;5033545;28;20030;-68
2024/01/01 04:36:21;;;;;;;9.75;2.10;;;6.90;99.90;;;;;;5033631;28;20041;-68
2024/01/01 04:38:47;;;;;;;8.85;2.08;;;7.00;99.90;;;;;;5033606;28;20026;-68
2024/01/01 04:41:12;;;;;;;9.73;2.13;;;7.00;99.90;;;;;;5033625;28;20160;-68
2024/01/01 04:43:40;;;;;;;10.15;2.55;;;7.00;99.90;;;;;;5033342;28;20079;-68
2024/01/01 04:46:06;;;;;;;8.05;2.08;;;7.00;99.90;;;;;;5033630;28;20079;-68
2024/01/01 04:48:32;;;;;;;7.80;1.85;;;7.00;99.90;;;;;;5033496;28;20462;-68
2024/01/01 04:50:58;;;;;;;13.77;2.88;;;7.00;99.90;;;;;;5033498;28;20116;-68
2024/01/01 04:53:24;;;;;;;7.93;2.08;;;7.10;99.90;;;;;;5033037;28;20049;-68
2024/01/01 04:55:50;;;;;;;13.20;2.45;;;7.10;99.90;;;;;;5033426;28;20045;-68
2024/01/01 04:58:16;;;;;;;10.05;2.72;;;7.20;99.90;;;;;;5033446;28;20084;-68
2024/01/01 05:00:41;;;;;;;16.38;3.38;;;7.20;99.90;;;;;;5032982;28;20030;-68
2024/01/01 05:03:07;;;;;;;12.50;2.92;;;7.30;99.90;;;;;;5033226;28;20446;-68
2024/01/01 05:05:32;;;;;;;18.95;2.83;;;7.20;99.90;;;;;;5033288;28;20065;-68
2024/01/01 05:07:58;;;;;;;12.48;2.60;;;7.30;99.90;;;;;;5033245;28;20033;-68
2024/01/01 05:10:24;;;;;;;11.73;2.53;;;7.30;99.90;;;;;;5033097;28;20419;-68
2024/01/01 05:12:49;;;;;;;14.93;2.30;;;7.40;99.90;;;;;;5032796;28;20030;-68
2024/01/01 05:15:15;;;;;;;16.27;3.17;;;7.40;99.90;;;;;;5033302;28;20030;-68
2024/01/01 05:17:41;;;;;;;13.77;2.70;;;7.40;99.90;;;;;;5033124;28;20049;-68
2024/01/01 05:20:07;;;;;;;13.23;2.70;;;7.40;99.90;;;;;;5033068;28;20025;-68
2024/01/01 05:22:32;;;;;;;11.90;2.72;;;7.50;99.90;;;;;;5033375;28;20417;-68
2024/01/01 05:24:58;;;;;;;17.88;3.25;;;7.50;99.90;;;;;;5033167;28;20112;-68
2024/01/01 05:27:23;;;;;;;12.57;2.60;;;7.50;99.90;;;;;;5033208;28;20029;-68
2024/01/01 05:29:50;;;;;;;15.98;2.70;;;7.60;99.90;;;;;;5033108;28;20052;-68
2024/01/01 05:32:16;;;;;;;26.17;7.25;;;7.60;99.90;;;;;;5033038;28;20032;-68
2024/01/01 05:34:41;;;;;;;15.88;3.42;;;7.60;99.90;;;;;;5032848;28;20034;-68
2024/01/01 05:37:07;;;;;;;23.75;4.00;;;7.60;99.90;;;;;;5032928;28;20037;-68
2024/01/01 05:39:33;;;;;;;20.70;3.05;;;7.70;99.90;;;;;;5032883;28;20061;-68
2024/01/01 05:41:59;;;;;;;17.77;2.88;;;7.80;99.90;;;;;;5032821;28;20486;-68
2024/01/01 05:44:24;;;;;;;20.80;3.10;;;7.80;99.90;;;;;;5032886;28;20041;-68
2024/01/01 05:46:50;;;;;;;13.48;2.90;;;7.70;99.90;;;;;;5032888;28;20487;-67
2024/01/01 05:49:17;;;;;;;13.60;2.42;;;7.70;99.90;;;;;;5032987;28;20033;-68
2024/01/01 05:51:43;;;;;;;18.90;3.20;;;7.80;99.90;;;;;;5032602;28;20110;-69
2024/01/01 05:54:09;;;;;;;12.23;2.90;;;7.80;99.90;;;;;;5032828;28;20037;-67
2024/01/01 05:56:34;;;;;;;15.07;2.90;;;7.80;99.90;;;;;;5034531;28;20033;-68
2024/01/01 05:59:00;;;;;;;21.40;3.22;;;7.80;99.90;;;;;;5036548;28;20391;-68
2024/01/01 06:01:25;;;;;;;16.77;3.75;;;7.90;99.70;;;;;;5036022;28;20083;-68
2024/01/01 06:03:51;;;;;;;17.20;3.60;;;7.90;97.50;;;;;;5036041;28;20083;-68
2024/01/01 06:06:16;;;;;;;20.27;3.17;;;7.90;95.20;;;;;;5036265;28;20029;-68
2024/01/01 06:08:42;;;;;;;17.13;3.40;;;7.90;95.80;;;;;;5036367;28;20038;-68
2024/01/01 06:11:07;;;;;;;20.13;3.67;;;8.00;92.50;;;;;;5035939;28;20442;-67
2024/01/01 06:13:33;;;;;;;16.35;3.08;;;8.00;90.50;;;;;;5035954;28;20068;-67
2024/01/01 06:15:59;;;;;;;19.35;4.22;;;8.00;90.70;;;;;;5035814;28;20403;-67
2024/01/01 06:18:25;;;;;;;18.48;3.45;;;8.00;76.90;;;;;;5036018;28;20060;-68
2024/01/01 06:20:50;;;;;;;23.63;3.22;;;8.00;74.20;;;;;;5035660;28;20079;-68
2024/01/01 06:23:16;;;;;;;15.88;3.10;;;8.00;69.40;;;;;;5036050;28;20503;-67
2024/01/01 06:25:42;;;;;;;14.70;2.90;;;8.10;59.80;;;;;;5036151;28;20055;-68
2024/01/01 06:28:08;;;;;;;14.50;3.03;;;8.20;66.00;;;;;;5036019;28;20113;-68
2024/01/01 06:30:34;;;;;;;17.77;3.30;;;8.20;58.20;;;;;;5035972;28;20033;-68
2024/01/01 06:33:01;;;;;;;18.35;2.72;;;8.20;42.10;;;;;;5035614;28;20026;-68
2024/01/01 06:35:30;;;;;;;16.63;2.97;;;8.30;50.20;;;;;;5035877;28;20483;-68
2024/01/01 06:37:56;;;;;;;20.77;3.08;;;8.30;46.20;;;;;;5035656;28;20025;-67
2024/01/01 06:40:21;;;;;;;17.35;2.70;;;8.30;35.10;;;;;;5035831;28;20059;-66
2024/01/01 06:42:47;;;;;;;17.30;2.88;;;8.30;37.90;;;;;;5035569;28;20499;-67
2024/01/01 06:45:13;;;;;;;20.17;3.35;;;8.30;47.40;;;;;;5035292;28;20476;-67
2024/01/01 06:47:39;;;;;;;15.85;3.40;;;8.30;49.20;;;;;;5035562;28;20076;-66
2024/01/01 06:50:05;;;;;;;14.73;2.97;;;8.30;50.30;;;;;;5035667;28;20030;-66
2024/01/01 06:52:30;;;;;;;16.60;3.20;;;8.30;45.40;;;;;;5035204;28;20045;-67
2024/01/01 06:54:56;;;;;;;15.75;2.90;;;8.30;44.00;;;;;;5034986;28;20542;-67
2024/01/01 06:57:21;;;;;;;18.17;3.40;;;8.30;42.00;;;;;;5035284;28;20025;-66
2024/01/01 06:59:47;;;;;;;26.50;3.22;;;8.30;36.10;;;;;;5035284;28;20034;-67
2024/01/01 07:02:13;;;;;;;19.48;3.03;;;8.30;31.10;;;;;;5035478;28;20024;-66
2024/01/01 07:04:38;;;;;;;14.85;3.17;;;8.30;34.60;;;;;;5035246;28;20506;-67
2024/01/01 07:07:04;;;;;;;12.13;3.33;;;8.30;31.00;;;;;;5034796;28;20025;-66
2024/01/01 07:09:30;;;;;;;15.52;3.22;;;8.30;34.80;;;;;;5035295;28;20034;-67
2024/01/01 07:11:57;;;;;;;12.30;2.90;;;8.30;35.00;;;;;;5034082;28;20498;-67
2024/01/01 07:14:23;;;;;;;10.98;2.45;;;8.30;39.50;;;;;;5034941;28;20117;-67
2024/01/01 07:16:52;;;;;;;13.80;2.92;;;8.20;40.60;;;;;;5035163;28;20446;-67
2024/01/01 07:19:17;;;;;;;17.50;3.00;;;8.20;41.50;;;;;;5034950;28;20048;-67
2024/01/01 07:21:43;;;;;;;12.63;2.75;;;8.20;43.60;;;;;;5034891;28;20033;-66
2024/01/01 07:24:08;;;;;;;13.02;2.90;;;8.20;39.40;;;;;;5035044;28;20029;-67
2024/01/01 07:26:34;;;;;;;11.00;2.80;;;8.20;36.40;;;;;;5034859;28;20029;-67
2024/01/01 07:29:00;;;;;;;14.23;3.03;;;8.20;34.70;;;;;;5034683;28;20137;-67
2024/01/01 07:31:26;;;;;;;15.48;3.03;;;8.20;31.40;;;;;;5034848;28;20372;-68
2024/01/01 07:33:51;;;;;;;14.30;3.08;;;8.30;29.20;;;;;;5034473;28;20029;-68
2024/01/01 07:36:17;;;;;;;16.15;2.83;;;8.30;25.90;;;;;;5034796;28;20029;-68
2024/01/01 07:38:42;;;;;;;10.40;2.75;;;8.30;26.70;;;;;;5034367;28;20018;-68
2024/01/01 07:41:08;;;;;;;14.93;2.25;;;8.20;30.80;;;;;;5034539;28;20029;-69
2024/01/01 07:43:34;;;;;;;10.57;2.65;;;8.30;27.30;;;;;;5034393;28;20104;-68
2024/01/01 07:45:59;;;;;;;11.15;2.10;;;8.20;32.70;;;;;;5034362;28;20538;-67
2024/01/01 07:48:25;;;;;;;12.27;2.17;;;8.20;31.00;;;;;;5034364;28;20033;-67
2024/01/01 07:50:51;;;;;;;9.07;2.45;;;8.20;37.80;;;;;;5034325;28;20116;-67
2024/01/01 07:53:16;;;;;;;9.52;1.95;;;8.10;43.10;;;;;;5034028;28;20518;-67
2024/01/01 07:55:42;;;;;;;9.27;1.98;;;8.10;44.10;;;;;;5034241;28;20044;-68
2024/01/01 07:58:07;;;;;;;7.57;2.15;;;8.00;49.80;;;;;;5033914;28;20022;-67
2024/01/01 08:00:33;;;;;;;12.45;2.47;;;7.90;55.30;;;;;;5034180;28;20026;-67
2024/01/01 08:02:59;;;;;;;7.97;2.20;;;7.80;63.60;;;;;;5033742;28;20136;-67
2024/01/01 08:05:24;;;;;;;9.75;1.85;;;7.80;66.00;;;;;;5032736;28;20025;-67
2024/01/01 08:07:50;;;;;;;10.00;2.00;;;7.70;76.60;;;;;;5034010;28;20104;-66
2024/01/01 08:10:16;;;;;;;9.68;2.10;;;7.70;80.80;;;;;;5033947;28;20049;-67
2024/01/01 08:12:41;;;;;;;11.80;2.72;;;7.70;86.70;;;;;;5033881;28;20479;-67
2024/01/01 08:15:07;;;;;;;11.85;2.58;;;7.70;93.70;;;;;;5033986;28;20041;-67
2024/01/01 08:17:33;;;;;;;10.15;2.05;;;7.60;97.10;;;;;;5033813;28;20639;-67
2024/01/01 08:19:59;;;;;;;10.63;2.22;;;7.60;99.90;;;;;;5033371;28;20085;-67
2024/01/01 08:22:24;;;;;;;14.43;3.25;;;7.50;99.90;;;;;;5033716;28;20079;-67
2024/01/01 08:24:50;;;;;;;13.38;2.28;;;7.50;99.90;;;;;;5033688;28;20476;-67
2024/01/01 08:27:15;;;;;;;12.68;2.35;;;7.50;99.90;;;;;;5033645;28;20017;-67
2024/01/01 08:29:41;;;;;;;18.58;2.78;;;7.50;99.90;;;;;;5033661;28;20036;-68
2024/01/01 08:32:07;;;;;;;18.23;2.90;;;7.50;99.90;;;;;;5032757;28;20036;-67
2024/01/01 08:34:33;;;;;;;16.73;3.25;;;7.60;98.10;;;;;;5033309;28;20029;-67
2024/01/01 08:36:59;;;;;;;11.75;2.60;;;7.60;99.90;;;;;;5033468;28;20038;-67
2024/01/01 08:39:25;;;;;;;12.77;2.60;;;7.60;99.90;;;;;;5033456;28;20021;-67
2024/01/01 08:41:50;;;;;;;16.58;3.28;;;7.60;98.40;;;;;;5033423;28;20475;-68
2024/01/01 08:44:16;;;;;;;10.82;2.67;;;7.70;97.90;;;;;;5033433;28;20439;-67
2024/01/01 08:46:41;;;;;;;16.08;2.35;;;7.70;99.90;;;;;;5033518;28;20025;-67
2024/01/01 08:49:07;;;;;;;16.92;3.33;;;7.60;99.90;;;;;;5033425;28;20530;-68
2024/01/01 08:51:34;;;;;;;10.88;2.65;;;7.60;99.90;;;;;;5033464;28;20037;-67
2024/01/01 08:54:01;;;;;;;14.13;3.10;;;7.60;99.90;;;;;;5033029;28;20050;-67
2024/01/01 08:56:26;;;;;;;14.80;2.83;;;7.50;99.90;;;;;;5033278;28;20025;-67
2024/01/01 08:58:52;;;;;;;8.15;2.35;;;7.50;99.90;;;;;;5033112;28;20022;-68
2024/01/01 09:01:18;;;;;;;12.88;2.75;;;7.50;99.90;;;;;;5033192;28;20037;-68
2024/01/01 09:03:44;;;;;;;18.55;3.08;;;7.50;99.90;;;;;;5033110;28;20033;-69
2024/01/01 09:06:10;;;;;;;13.95;3.03;;;7.50;99.90;;;;;;5033426;28;20084;-68
2024/01/01 09:08:36;;;;;;;13.48;2.20;;;7.50;99.90;;;;;;5033226;28;20029;-68
2024/01/01 09:11:02;;;;;;;13.23;2.60;;;7.50;99.90;;;;;;5033242;28;20041;-68
2024/01/01 09:13:28;;;;;;;16.95;3.10;;;7.50;99.90;;;;;;5032717;28;20033;-69
2024/01/01 09:15:53;;;;;;;11.95;2.40;;;7.60;99.90;;;;;;5033276;28;20021;-69
2024/01/01 09:18:19;;;;;;;15.90;2.70;;;7.60;99.90;;;;;;5033214;28;20072;-69
2024/01/01 09:20:45;;;;;;;11.40;2.22;;;7.60;99.90;;;;;;5033026;28;20030;-69
2024/01/01 09:23:10;;;;;;;13.95;3.13;;;7.60;99.90;;;;;;5033092;28;20029;-69
2024/01/01 09:25:40;;;;;;;12.43;2.47;;;7.60;99.90;;;;;;5033197;28;20038;-68
2024/01/01 09:28:05;;;;;;;12.40;2.13;;;7.60;99.90;;;;;;5033140;28;20048;-68
2024/01/01 09:30:31;;;;;;;10.50;2.45;;;7.60;99.90;;;;;;5034815;28;20033;-69
2024/01/01 09:32:56;;;;;;;11.95;2.63;;;7.60;99.90;;;;;;5036857;28;20028;-68
2024/01/01 09:35:22;;;;;;;10.20;2.17;;;7.60;99.90;;;;;;5037005;28;20040;-68
2024/01/01 09:37:52;;;;;;;12.30;2.35;;;7.70;99.50;;;;;;5036852;28;20040;-68
2024/01/01 09:40:19;;;;;;;9.02;2.28;;;7.70;99.90;;;;;;5036770;28;20113;-68
2024/01/01 09:42:47;;;;;;;8.73;2.10;;;7.70;99.90;;;;;;5036925;28;20096;-68
2024/01/01 09:45:12;;;;;;;7.38;2.17;;;7.70;95.60;;;;;;5036940;28;20032;-67
2024/01/01 09:47:39;;;;;;;10.48;2.38;;;7.70;94.60;;;;;;5036773;28;20471;-68
2024/01/01 09:50:05;;;;;;;5.28;2.00;;;7.70;93.10;;;;;;5036495;28;20021;-68
2024/01/01 09:52:30;;;;;;;11.02;2.33;;;7.70;95.00;;;;;;5036293;28;20053;-68
2024/01/01 09:54:56;;;;;;;9.02;1.80;;;7.70;94.60;;;;;;5036344;28;20095;-68
2024/01/01 09:57:21;;;;;;;8.25;2.20;;;7.70;94.30;;;;;;5036573;28;20033;-67
2024/01/01 09:59:47;;;;;;;9.50;1.95;;;7.80;88.00;;;;;;5036609;28;20184;-66
2024/01/01 10:02:13;;;;;;;9.13;1.98;;;7.80;88.10;;;;;;5036337;28;20037;-67
2024/01/01 10:04:38;;;;;;;14.45;1.70;;;7.90;86.70;;;;;;5036534;28;20372;-67
2024/01/01 10:07:04;;;;;;;8.68;2.25;;;7.80;88.00;;;;;;5036396;28;20499;-67
2024/01/01 10:09:30;;;;;;;5.32;2.28;;;7.80;83.20;;;;;;5036213;28;20108;-67
2024/01/01 10:12:11;;;;;;;6.97;1.90;;;7.80;80.10;;;;;;5036173;28;20029;-66
2024/01/01 10:14:52;;;;;;;8.65;2.03;;;7.90;78.10;;;;;;5036066;28;20083;-67
2024/01/01 10:17:18;;;;;;;11.93;1.85;;;7.90;84.70;;;;;;5036046;28;20549;-67
2024/01/01 10:19:56;;;;;;;5.38;1.75;;;8.00;90.80;;;;;;5036034;28;20025;-67
2024/01/01 10:22:23;;;;;;;11.93;2.38;;;8.00;88.60;;;;;;5036094;28;20072;-67
2024/01/01 10:24:52;;;;;;;10.95;1.85;;;8.00;89.70;;;;;;5034836;28;20484;-67
2024/01/01 10:27:19;;;;;;;7.78;2.03;;;7.90;86.40;;;;;;5034933;28;20030;-67
2024/01/01 10:29:47;;;;;;;13.15;2.17;;;8.00;77.10;;;;;;5035877;28;20029;-68
2024/01/01 10:32:15;;;;;;;9.27;2.65;;;8.00;81.80;;;;;;5035813;28;20104;-68
2024/01/01 10:34:42;;;;;;;8.80;2.20;;;8.00;71.10;;;;;;5035869;28;20038;-70
2024/01/01 10:37:08;;;;;;;13.23;2.60;;;8.00;68.50;;;;;;5035922;28;20030;-68
2024/01/01 10:39:36;;;;;;;8.38;2.78;;;8.00;73.30;;;;;;5035785;28;20063;-68
2024/01/01 10:42:02;;;;;;;13.20;2.65;;;8.10;62.90;;;;;;5034991;28;20032;-67
2024/01/01 10:44:29;;;;;;;10.63;2.17;;;8.10;65.70;;;;;;5035788;28;20120;-67
2024/01/01 10:46:57;;;;;;;7.18;2.20;;;8.10;62.70;;;;;;5035291;28;20030;-67
2024/01/01 10:49:29;;;;;;;6.57;2.40;;;8.20;64.10;;;;;;5035737;28;20394;-67
2024/01/01 10:52:35;;;;;;;9.98;2.13;;;8.30;61.80;;;;;;5034104;28;20373;-67
2024/01/01 10:55:28;;;;;;;6.65;2.15;;;8.20;61.20;;;;;;5035209;28;20026;-68
2024/01/01 10:58:33;;;;;;;10.82;2.92;;;8.10;76.40;;;;;;5035451;28;20071;-68
2024/01/01 11:01:06;;;;;;;12.23;2.72;;;8.00;83.70;;;;;;5035032;28;20032;-67
2024/01/01 11:03:33;;;;;;;5.67;2.60;;;7.90;90.00;;;;;;5035437;28;20033;-68
2024/01/01 11:06:26;;;;;;;10.68;2.22;;;7.90;94.40;;;;;;5035319;28;20276;-67
2024/01/01 11:08:52;;;;;;;7.45;2.17;;;7.90;93.50;;;;;;5035224;28;20033;-68
2024/01/01 11:11:30;;;;;;;9.50;2.40;;;7.90;95.20;;;;;;5035173;28;20033;-67
2024/01/01 11:13:56;;;;;;;8.40;2.45;;;7.90;96.20;;;;;;5034768;28;20065;-68
2024/01/01 11:16:22;;;;;;;8.95;2.30;;;7.90;99.90;;;;;;5035189;28;20507;-67
2024/01/01 11:18:48;;;;;;;8.85;2.17;;;7.90;99.90;;;;;;5035155;28;20036;-67
2024/01/01 11:21:28;;;;;;;7.53;2.85;;;7.80;99.40;;;;;;5035178;28;20395;-67
2024/01/01 11:23:54;;;;;;;8.80;2.50;;;7.70;99.90;;;;;;5034682;28;20502;-68
2024/01/01 11:26:26;;;;;;;9.95;2.58;;;7.70;99.90;;;;;;5034800;28;20025;-67
2024/01/01 11:28:55;;;;;;;7.47;2.22;;;7.60;99.90;;;;;;5034504;28;20033;-68
2024/01/01 11:31:22;;;;;;;9.38;2.83;;;7.60;99.90;;;;;;5034698;28;20025;-68
2024/01/01 11:34:06;;;;;;;10.57;2.90;;;7.60;99.90;;;;;;5034684;28;20033;-67
2024/01/01 11:36:32;;;;;;;7.78;2.13;;;7.60;99.90;;;;;;5034722;28;20040;-67
2024/01/01 11:38:59;;;;;;;13.02;2.45;;;7.70;99.90;;;;;;5034624;28;20029;-67
2024/01/01 11:41:26;;;;;;;11.80;3.28;;;7.70;99.90;;;;;;5034486;28;20024;-68
2024/01/01 11:43:52;;;;;;;13.20;3.20;;;7.70;99.90;;;;;;5034707;28;20025;-68
2024/01/01 11:46:26;;;;;;;7.80;2.25;;;7.70;99.90;;;;;;5034308;28;20399;-67
2024/01/01 11:48:56;;;;;;;10.35;2.90;;;7.70;99.90;;;;;;5034554;28;20064;-67
2024/01/01 11:51:23;;;;;;;8.70;2.88;;;7.70;99.90;;;;;;5034048;28;20029;-67
2024/01/01 11:54:02;;;;;;;16.13;3.20;;;7.80;99.90;;;;;;5033128;28;20136;-68
2024/01/01 11:56:28;;;;;;;13.10;2.72;;;7.90;99.90;;;;;;5034205;28;20403;-67
2024/01/01 11:58:53;;;;;;;11.40;3.17;;;8.00;99.90;;;;;;5034350;28;20018;-67
2024/01/01 12:01:19;;;;;;;9.63;2.67;;;8.10;99.90;;;;;;5034296;28;20026;-68
2024/01/01 12:03:45;;;;;;;8.43;2.85;;;8.10;99.90;;;;;;5034124;28;20040;-68
2024/01/01 12:06:11;;;;;;;10.13;2.90;;;8.10;99.90;;;;;;5034110;28;20406;-68
2024/01/01 12:08:36;;;;;;;10.10;2.75;;;8.10;99.90;;;;;;5033976;28;20040;-68
2024/01/01 12:11:02;;;;;;;8.02;2.50;;;8.00;99.90;;;;;;5033879;28;20035;-68
2024/01/01 12:13:29;;;;;;;6.30;2.65;;;8.00;99.90;;;;;;5033813;28;20064;-68
2024/01/01 12:15:54;;;;;;;9.50;2.95;;;8.00;99.90;;;;;;5033871;28;20017;-68
2024/01/01 12:18:20;;;;;;;11.85;2.85;;;7.90;99.90;;;;;;5034032;28;20036;-68
2024/01/01 12:20:46;;;;;;;9.23;3.40;;;7.90;99.90;;;;;;5033777;28;20026;-68
2024/01/01 12:23:12;;;;;;;10.02;2.65;;;7.80;99.90;;;;;;5033550;28;20022;-68
2024/01/01 12:25:37;;;;;;;8.18;2.75;;;7.80;99.90;;;;;;5033726;28;20030;-68
2024/01/01 12:28:05;;;;;;;11.95;3.05;;;7.70;99.90;;;;;;5033780;28;20400;-68
2024/01/01 12:30:35;;;;;;;8.68;3.05;;;7.70;99.90;;;;;;5033567;28;20028;-68
2024/01/01 12:33:01;;;;;;;12.88;3.47;;;7.60;99.90;;;;;;5033481;28;20026;-67
2024/01/01 12:35:26;;;;;;;10.20;3.00;;;7.60;99.90;;;;;;5033594;28;20391;-68
2024/01/01 12:37:52;;;;;;;12.45;3.90;;;7.70;99.90;;;;;;5033476;28;20032;-68
2024/01/01 12:40:18;;;;;;;13.82;4.00;;;7.70;99.90;;;;;;5033230;28;20419;-68
2024/01/01 12:42:44;;;;;;;10.27;3.72;;;7.70;99.90;;;;;;5033732;28;20077;-68
2024/01/01 12:45:12;;;;;;;10.32;3.42;;;7.90;99.90;;;;;;5033249;28;20462;-68